Time;durP1;ratioP1;P1;durP2;ratioP2;P2;SDS_P1;SDS_P2;PMS_P1;PMS_P2;Temp;Humidity;BMP_temperature;BMP_pressure;BME280_temperature;BME280_humidity;BME280_pressure;Samples;Min_cycle;Max_cycle;Signal;HPM_P1;HPM_P2
2022/06/11 04:03:18;;;;;;;11.38;7.68;;;11.30;99.90;;;;;;5094741;28;20053;-76
2022/06/11 04:05:44;;;;;;;9.90;7.60;;;11.30;99.90;;;;;;5077423;28;20070;-76
2022/06/11 04:08:10;;;;;;;10.70;7.30;;;11.30;99.90;;;;;;5095440;28;20037;-79
2022/06/11 04:10:37;;;;;;;10.13;7.18;;;11.40;99.90;;;;;;5077135;28;20033;-76
2022/06/11 04:15:32;;;;;;;9.73;6.60;;;11.40;99.90;;;;;;5112434;28;20047;-77
2022/06/11 04:17:59;;;;;;;8.50;7.15;;;11.40;99.90;;;;;;5096929;28;20416;-78
2022/06/11 04:20:24;;;;;;;12.68;7.20;;;11.40;99.90;;;;;;5116274;28;20078;-77
2022/06/11 04:22:50;;;;;;;11.43;8.13;;;11.50;99.90;;;;;;5116495;28;20443;-78
2022/06/11 04:25:17;;;;;;;10.23;7.10;;;11.50;99.90;;;;;;5078067;28;20036;-77
2022/06/11 04:27:44;;;;;;;9.07;6.75;;;11.60;99.90;;;;;;5094855;28;20090;-77
2022/06/11 04:30:13;;;;;;;7.28;6.28;;;11.60;99.90;;;;;;5095095;28;20039;-78
2022/06/11 04:32:39;;;;;;;8.60;6.05;;;11.60;99.90;;;;;;5091900;28;20086;-77
2022/06/11 04:35:05;;;;;;;8.65;6.28;;;11.60;99.90;;;;;;5074732;28;20494;-77
2022/06/11 04:37:32;;;;;;;12.07;6.28;;;11.60;99.90;;;;;;5093830;28;20036;-78
2022/06/11 04:39:59;;;;;;;9.20;6.15;;;11.60;99.90;;;;;;5094644;28;20052;-78
2022/06/11 04:42:25;;;;;;;8.40;6.22;;;11.70;99.90;;;;;;5091752;28;20037;-77
2022/06/11 04:44:52;;;;;;;8.13;6.28;;;11.70;99.90;;;;;;5092977;28;20040;-77
2022/06/11 04:47:21;;;;;;;6.93;6.22;;;11.70;99.90;;;;;;5091761;28;20120;-78
2022/06/11 04:49:49;;;;;;;8.45;6.22;;;11.70;99.90;;;;;;5092841;28;20401;-78
2022/06/11 04:52:15;;;;;;;7.53;6.43;;;11.80;99.90;;;;;;5074219;28;20136;-78
2022/06/11 04:54:41;;;;;;;12.70;7.20;;;11.80;99.90;;;;;;5091624;28;20082;-77
2022/06/11 04:57:07;;;;;;;9.07;6.40;;;11.80;99.90;;;;;;5090873;28;20037;-77
2022/06/11 04:59:33;;;;;;;8.63;5.88;;;11.90;99.90;;;;;;5091977;28;20078;-77
2022/06/11 05:01:59;;;;;;;7.57;5.63;;;12.00;99.90;;;;;;5091989;28;20052;-77
2022/06/11 05:04:26;;;;;;;8.98;6.30;;;12.10;99.90;;;;;;5092411;28;20035;-77
2022/06/11 05:06:52;;;;;;;6.95;5.90;;;12.20;99.90;;;;;;5091744;28;20526;-77
2022/06/11 05:09:20;;;;;;;9.80;5.95;;;12.20;99.90;;;;;;5092521;28;20033;-78
2022/06/11 05:11:46;;;;;;;9.02;6.50;;;12.30;99.90;;;;;;5092292;28;20037;-78
2022/06/11 05:14:12;;;;;;;9.68;6.07;;;12.40;99.90;;;;;;5091704;28;20036;-77
2022/06/11 05:16:41;;;;;;;8.93;5.85;;;12.60;99.90;;;;;;5092010;28;20523;-77
2022/06/11 05:19:08;;;;;;;10.93;5.88;;;12.70;99.90;;;;;;5091191;28;20033;-77
2022/06/11 05:21:34;;;;;;;8.15;5.32;;;12.80;99.90;;;;;;5091937;28;20110;-78
2022/06/11 05:24:00;;;;;;;8.23;5.30;;;13.00;99.90;;;;;;5090551;28;20025;-77
2022/06/11 05:26:31;;;;;;;7.05;5.25;;;13.10;99.90;;;;;;5092352;28;20048;-77
2022/06/11 05:28:57;;;;;;;7.22;5.50;;;13.20;99.90;;;;;;5092304;28;20028;-77
2022/06/11 05:31:23;;;;;;;8.10;5.20;;;13.40;99.90;;;;;;5073945;28;20084;-77
2022/06/11 05:33:48;;;;;;;12.38;4.97;;;13.50;99.90;;;;;;5091934;28;20168;-77
2022/06/11 05:36:15;;;;;;;7.32;5.43;;;13.60;99.90;;;;;;5074281;28;20636;-77
2022/06/11 05:38:41;;;;;;;6.32;4.63;;;13.70;99.90;;;;;;5091547;28;20028;-77
2022/06/11 05:41:08;;;;;;;6.70;4.90;;;13.80;99.90;;;;;;5091666;28;20032;-77
2022/06/11 05:43:34;;;;;;;5.78;4.10;;;13.90;99.90;;;;;;5091060;28;20039;-77
2022/06/11 05:46:12;;;;;;;5.35;4.15;;;13.90;99.90;;;;;;5091390;28;20037;-77
2022/06/11 05:48:47;;;;;;;7.53;4.45;;;14.00;99.90;;;;;;5090321;28;20029;-78
2022/06/11 05:51:16;;;;;;;7.53;4.18;;;14.10;99.90;;;;;;5094205;28;20099;-77
2022/06/11 05:53:42;;;;;;;7.90;4.30;;;14.20;99.90;;;;;;5078917;28;20032;-78
2022/06/11 05:56:08;;;;;;;9.25;4.45;;;14.30;99.90;;;;;;5079320;28;20036;-78
2022/06/11 05:58:39;;;;;;;4.65;4.07;;;14.40;99.90;;;;;;5097992;28;20043;-78
2022/06/11 06:01:05;;;;;;;7.82;4.53;;;14.50;99.90;;;;;;5097584;28;20147;-78
2022/06/11 06:03:31;;;;;;;9.88;4.53;;;14.50;99.90;;;;;;5078271;28;20029;-78
2022/06/11 06:05:56;;;;;;;10.80;4.30;;;14.60;99.90;;;;;;5097741;28;20493;-78
2022/06/11 06:08:22;;;;;;;5.95;4.35;;;14.70;99.90;;;;;;5093241;28;20035;-78
2022/06/11 06:10:48;;;;;;;6.95;3.88;;;14.80;99.90;;;;;;5086594;28;20107;-77
2022/06/11 06:15:58;;;;;;;4.53;3.90;;;15.00;99.90;;;;;;5095878;28;20498;-77
2022/06/11 06:18:23;;;;;;;6.22;4.03;;;15.10;99.90;;;;;;5077455;28;20036;-77
2022/06/11 06:20:49;;;;;;;7.25;4.10;;;15.20;99.90;;;;;;5097884;28;20036;-78
2022/06/11 06:23:15;;;;;;;6.80;4.80;;;15.30;99.90;;;;;;5098671;28;20032;-78
2022/06/11 06:25:41;;;;;;;5.43;3.75;;;15.40;99.90;;;;;;5097646;28;20033;-78
2022/06/11 06:28:07;;;;;;;4.95;3.92;;;15.40;99.90;;;;;;5096538;28;20070;-79
2022/06/11 06:30:33;;;;;;;5.50;3.90;;;15.50;99.90;;;;;;5097240;28;20059;-78
2022/06/11 06:32:58;;;;;;;4.63;3.90;;;15.60;99.90;;;;;;5097443;28;20562;-79
2022/06/11 06:35:24;;;;;;;5.95;3.53;;;15.80;99.90;;;;;;5078836;28;20041;-78
2022/06/11 06:37:50;;;;;;;7.95;3.85;;;15.90;99.90;;;;;;5096953;28;20467;-78
2022/06/11 06:40:15;;;;;;;5.28;3.67;;;16.00;99.90;;;;;;5096325;28;20032;-78
2022/06/11 06:42:41;;;;;;;6.32;3.53;;;16.20;99.90;;;;;;5097348;28;20047;-79
2022/06/11 06:45:07;;;;;;;5.75;3.40;;;16.30;99.90;;;;;;5079148;28;20059;-79
2022/06/11 06:47:33;;;;;;;4.95;3.47;;;16.40;99.90;;;;;;5097006;28;20044;-79
2022/06/11 06:49:58;;;;;;;6.60;3.50;;;16.60;99.90;;;;;;5077754;28;20032;-79
2022/06/11 06:52:24;;;;;;;5.10;3.70;;;16.70;99.90;;;;;;5095473;28;20102;-79
2022/06/11 06:54:50;;;;;;;4.60;3.35;;;16.90;99.90;;;;;;5077089;28;20086;-78
2022/06/11 06:57:16;;;;;;;5.13;3.58;;;17.10;99.90;;;;;;5095795;28;20111;-78
2022/06/11 06:59:41;;;;;;;4.55;3.47;;;17.20;99.90;;;;;;5095450;28;20025;-78
2022/06/11 07:02:10;;;;;;;9.38;4.03;;;17.30;99.90;;;;;;5095631;28;20028;-79
2022/06/11 07:04:35;;;;;;;6.18;3.45;;;17.50;99.90;;;;;;5095605;28;20039;-82
2022/06/11 07:07:01;;;;;;;7.95;3.80;;;17.70;99.90;;;;;;5077809;28;20055;-79
2022/06/11 07:09:28;;;;;;;6.10;3.40;;;17.80;99.90;;;;;;5097386;28;20035;-80
2022/06/11 07:11:53;;;;;;;6.85;3.70;;;18.00;99.90;;;;;;5099579;28;20036;-79
2022/06/11 07:14:19;;;;;;;6.22;3.05;;;18.20;99.90;;;;;;5099865;28;20041;-80
2022/06/11 07:16:51;;;;;;;3.45;3.15;;;18.40;99.90;;;;;;5101583;28;20119;-79
2022/06/11 07:19:32;;;;;;;5.13;3.33;;;18.70;99.90;;;;;;5099585;28;20039;-80
2022/06/11 07:22:03;;;;;;;5.25;3.00;;;18.90;99.90;;;;;;5096805;28;20029;-78
2022/06/11 07:24:32;;;;;;;5.38;3.05;;;19.10;99.90;;;;;;5078014;28;20039;-78
2022/06/11 07:27:04;;;;;;;4.75;3.10;;;19.30;99.90;;;;;;5095582;28;20044;-81
2022/06/11 07:29:34;;;;;;;4.00;2.72;;;19.50;99.90;;;;;;5099281;28;20433;-80
2022/06/11 07:32:04;;;;;;;4.65;2.30;;;19.70;99.90;;;;;;5075683;28;20502;-80
2022/06/11 07:34:30;;;;;;;4.53;2.70;;;20.00;99.90;;;;;;5081226;28;20525;-78
2022/06/11 07:36:57;;;;;;;4.25;2.58;;;20.20;99.90;;;;;;5085651;28;20037;-81
2022/06/11 07:39:23;;;;;;;2.83;2.30;;;20.50;99.90;;;;;;5093892;28;20562;-79
2022/06/11 07:41:48;;;;;;;7.65;2.50;;;20.80;99.90;;;;;;5084626;28;20090;-82
2022/06/11 07:44:14;;;;;;;4.60;2.47;;;21.00;99.90;;;;;;5104260;28;20103;-82
2022/06/11 07:46:39;;;;;;;2.90;2.28;;;21.20;99.90;;;;;;5104297;28;20048;-83
2022/06/11 07:49:05;;;;;;;4.75;2.40;;;21.40;99.90;;;;;;5097909;28;20037;-78
2022/06/11 07:51:31;;;;;;;4.90;2.30;;;21.50;99.90;;;;;;5076202;28;20068;-80
2022/06/11 07:53:56;;;;;;;3.47;2.25;;;21.80;99.50;;;;;;5073741;28;20486;-79
2022/06/11 07:56:22;;;;;;;5.38;2.60;;;21.80;99.40;;;;;;5073349;28;20541;-79
2022/06/11 07:58:52;;;;;;;3.42;2.17;;;22.00;97.60;;;;;;5076644;28;20033;-80
2022/06/11 08:01:18;;;;;;;5.47;2.28;;;22.10;97.80;;;;;;5072661;28;20033;-80
2022/06/11 08:03:44;;;;;;;3.83;2.20;;;22.40;96.80;;;;;;5068424;28;20083;-80
2022/06/11 08:06:10;;;;;;;4.25;2.15;;;22.30;97.20;;;;;;5072906;28;20459;-80
2022/06/11 08:08:36;;;;;;;2.95;2.40;;;22.50;97.30;;;;;;5075352;28;20036;-80
2022/06/11 08:11:03;;;;;;;4.78;2.50;;;22.60;98.30;;;;;;5075502;28;20033;-80
2022/06/11 08:13:28;;;;;;;3.80;2.67;;;22.70;97.90;;;;;;5074337;28;20079;-80
2022/06/11 08:15:55;;;;;;;3.25;2.50;;;22.80;97.20;;;;;;5074461;28;20087;-80
2022/06/11 08:18:22;;;;;;;3.72;2.42;;;22.80;95.60;;;;;;5074061;28;20032;-80
2022/06/11 08:20:50;;;;;;;4.72;2.10;;;22.80;96.10;;;;;;5074277;28;20033;-79
2022/06/11 08:23:16;;;;;;;5.85;2.22;;;22.90;95.10;;;;;;5070789;28;20037;-79
2022/06/11 08:25:41;;;;;;;5.18;2.05;;;23.10;94.00;;;;;;5073270;28;20036;-79
2022/06/11 08:28:10;;;;;;;2.78;2.42;;;23.00;93.90;;;;;;5070874;28;20079;-79
2022/06/11 08:30:35;;;;;;;5.32;2.40;;;23.40;93.90;;;;;;5071466;28;20039;-79
2022/06/11 08:33:01;;;;;;;4.03;2.15;;;23.50;93.40;;;;;;5072800;28;20044;-79
2022/06/11 08:35:29;;;;;;;5.45;2.30;;;23.60;92.30;;;;;;5072924;28;20123;-79
2022/06/11 08:37:55;;;;;;;2.67;1.80;;;23.50;91.30;;;;;;5073163;28;20044;-79
2022/06/11 08:40:41;;;;;;;3.95;1.92;;;23.70;91.90;;;;;;5073659;28;20028;-79
2022/06/11 08:43:24;;;;;;;4.20;2.00;;;23.80;92.70;;;;;;5072229;28;20029;-79
2022/06/11 08:45:55;;;;;;;6.18;2.40;;;24.00;90.30;;;;;;5073197;28;20029;-79
2022/06/11 08:49:04;;;;;;;4.03;2.13;;;24.10;90.30;;;;;;5072848;28;20418;-79
2022/06/11 08:51:44;;;;;;;4.45;2.33;;;24.40;88.00;;;;;;5072823;28;20064;-79
2022/06/11 08:54:35;;;;;;;4.47;2.50;;;24.40;90.40;;;;;;5069833;28;20036;-79
2022/06/11 08:57:19;;;;;;;6.22;2.33;;;24.50;90.60;;;;;;5059283;28;20156;-79
2022/06/11 09:00:04;;;;;;;4.72;2.50;;;24.50;88.50;;;;;;5072656;28;20033;-79
2022/06/11 09:02:45;;;;;;;5.40;2.50;;;24.80;88.50;;;;;;5072025;28;20025;-79
2022/06/11 09:05:41;;;;;;;3.97;2.58;;;24.80;87.20;;;;;;5071484;28;20037;-79
2022/06/11 09:08:18;;;;;;;3.45;2.10;;;24.70;89.90;;;;;;5072177;28;20037;-79
2022/06/11 09:11:10;;;;;;;3.28;2.00;;;24.80;83.50;;;;;;5073411;28;20033;-79
2022/06/11 09:13:38;;;;;;;4.53;2.42;;;24.90;89.40;;;;;;5071470;28;20066;-79
2022/06/11 09:16:16;;;;;;;3.63;1.90;;;25.10;81.20;;;;;;5072562;28;20029;-79
2022/06/11 09:19:12;;;;;;;7.43;2.10;;;25.00;83.30;;;;;;5070795;28;20037;-79
2022/06/11 09:21:45;;;;;;;4.60;2.25;;;24.90;83.20;;;;;;5072526;28;20025;-79
2022/06/11 09:24:21;;;;;;;4.20;1.92;;;25.00;77.90;;;;;;5073217;28;20063;-79
2022/06/11 09:27:01;;;;;;;9.02;2.25;;;25.10;77.80;;;;;;5074242;28;20045;-79
2022/06/11 09:29:27;;;;;;;13.07;4.00;;;25.50;72.30;;;;;;5075704;28;20155;-80
2022/06/11 09:32:11;;;;;;;7.07;2.05;;;25.50;73.40;;;;;;5073824;28;20112;-79
2022/06/11 09:34:41;;;;;;;11.05;3.33;;;25.50;73.60;;;;;;5073588;28;20558;-79
2022/06/11 09:37:11;;;;;;;10.77;3.17;;;25.70;72.50;;;;;;5076489;28;20485;-79
2022/06/11 09:39:51;;;;;;;4.97;1.88;;;25.90;74.10;;;;;;5075596;28;20485;-79
2022/06/11 09:42:35;;;;;;;2.95;1.50;;;26.30;72.00;;;;;;5075672;28;20037;-79
2022/06/11 09:45:16;;;;;;;4.22;1.38;;;26.20;70.70;;;;;;5074626;28;20052;-80
2022/06/11 09:47:58;;;;;;;7.28;1.75;;;26.30;70.80;;;;;;5075437;28;20495;-79
2022/06/11 09:50:35;;;;;;;4.40;1.90;;;26.50;71.80;;;;;;5074154;28;20037;-79
2022/06/11 09:53:06;;;;;;;4.15;1.55;;;26.50;67.60;;;;;;5076048;28;20442;-79
2022/06/11 09:55:50;;;;;;;3.75;1.75;;;26.30;67.50;;;;;;5075962;28;20112;-80
2022/06/11 09:58:27;;;;;;;4.57;1.95;;;26.60;68.50;;;;;;5075663;28;20104;-79
2022/06/11 10:01:00;;;;;;;6.35;1.73;;;26.40;69.00;;;;;;5076124;28;20029;-79
2022/06/11 10:03:39;;;;;;;3.22;1.45;;;26.80;69.10;;;;;;5075987;28;20482;-79
2022/06/11 10:06:17;;;;;;;3.05;1.73;;;26.90;66.90;;;;;;5076753;28;20033;-80
2022/06/11 10:08:56;;;;;;;9.35;2.28;;;26.70;66.60;;;;;;5075655;28;20041;-79
2022/06/11 10:11:30;;;;;;;4.82;1.60;;;26.50;70.40;;;;;;5077124;28;20025;-80
2022/06/11 10:14:29;;;;;;;4.55;1.95;;;26.40;65.60;;;;;;5105203;22;20048;-74
2022/06/11 10:17:16;;;;;;;6.22;2.00;;;26.90;67.50;;;;;;5111538;27;20043;-74
2022/06/11 10:20:12;;;;;;;4.22;1.88;;;26.70;69.70;;;;;;5116365;27;20467;-75
2022/06/11 10:23:01;;;;;;;6.63;1.80;;;26.80;67.20;;;;;;5151349;27;20037;-74
2022/06/11 10:25:37;;;;;;;5.07;1.98;;;27.10;70.30;;;;;;5135633;27;20027;-75
2022/06/11 10:28:13;;;;;;;4.80;2.17;;;26.90;67.40;;;;;;5110968;27;20070;-74
2022/06/11 10:30:57;;;;;;;4.72;1.67;;;27.30;67.10;;;;;;5130688;27;20032;-74
2022/06/11 10:33:31;;;;;;;2.60;1.70;;;27.50;69.20;;;;;;5129229;27;20032;-75
2022/06/11 10:36:22;;;;;;;3.08;1.80;;;27.70;66.90;;;;;;5128475;27;20130;-75
2022/06/11 10:38:51;;;;;;;5.90;1.85;;;28.00;68.10;;;;;;5130187;27;20106;-74
2022/06/11 10:41:36;;;;;;;5.15;1.60;;;27.70;63.70;;;;;;5130311;27;20034;-74
2022/06/11 10:44:07;;;;;;;2.85;1.58;;;27.70;62.20;;;;;;5130796;27;20036;-76
2022/06/11 10:46:36;;;;;;;2.90;1.65;;;27.70;65.90;;;;;;5128207;27;20042;-74
2022/06/11 10:49:03;;;;;;;4.07;1.73;;;27.70;63.00;;;;;;5111234;27;20073;-74
2022/06/11 10:51:33;;;;;;;5.82;1.75;;;27.90;62.50;;;;;;5130128;27;20035;-73
2022/06/11 10:54:17;;;;;;;4.80;1.58;;;28.00;63.00;;;;;;5111286;27;20447;-74
2022/06/11 10:56:57;;;;;;;5.72;1.52;;;28.00;62.80;;;;;;5129585;27;20047;-75
2022/06/11 10:59:34;;;;;;;4.70;1.80;;;28.10;62.00;;;;;;5128481;27;20401;-74
2022/06/11 11:02:31;;;;;;;4.15;1.80;;;28.50;61.70;;;;;;5128871;27;20039;-74
2022/06/11 11:05:05;;;;;;;4.18;1.73;;;28.80;59.60;;;;;;5127686;27;20079;-74
2022/06/11 11:07:41;;;;;;;4.85;1.90;;;28.70;60.20;;;;;;5128360;27;20036;-76
2022/06/11 11:10:37;;;;;;;2.75;1.30;;;28.60;60.10;;;;;;5111443;27;20031;-74
2022/06/11 11:13:11;;;;;;;4.35;1.75;;;28.80;59.60;;;;;;5116053;27;20093;-75
2022/06/11 11:15:46;;;;;;;5.57;2.15;;;28.60;68.90;;;;;;5115771;27;20031;-75
2022/06/11 11:18:22;;;;;;;4.95;1.90;;;28.70;64.20;;;;;;5118612;27;20085;-75
2022/06/11 11:20:51;;;;;;;3.80;1.70;;;28.50;61.50;;;;;;5110116;28;20029;-75
2022/06/11 11:23:20;;;;;;;2.83;1.77;;;28.60;62.10;;;;;;5119723;27;20054;-74
2022/06/11 11:25:56;;;;;;;3.72;1.70;;;29.10;61.50;;;;;;5109547;27;20034;-75
2022/06/11 11:28:53;;;;;;;3.38;1.70;;;29.20;59.20;;;;;;5128028;27;20058;-77
2022/06/11 11:31:27;;;;;;;3.80;1.60;;;28.80;60.60;;;;;;5112399;27;21121;-75
2022/06/11 11:34:09;;;;;;;1.88;1.42;;;28.80;60.30;;;;;;5089012;28;20083;-76
2022/06/11 11:36:35;;;;;;;3.58;1.80;;;28.90;58.90;;;;;;5108095;28;20050;-76
2022/06/11 11:39:12;;;;;;;5.70;1.73;;;29.20;59.30;;;;;;5090316;28;20481;-75
2022/06/11 11:41:48;;;;;;;3.25;1.67;;;29.20;62.30;;;;;;5110042;28;20071;-74
2022/06/11 11:44:18;;;;;;;3.72;1.40;;;29.00;62.30;;;;;;5088299;28;20071;-74
2022/06/11 11:46:50;;;;;;;4.88;1.63;;;28.80;59.40;;;;;;5106958;27;20036;-75
2022/06/11 11:49:20;;;;;;;4.30;1.50;;;29.20;59.90;;;;;;5087750;28;20119;-75
2022/06/11 11:51:46;;;;;;;5.00;1.67;;;29.30;58.60;;;;;;5109447;28;20036;-75
2022/06/11 11:54:20;;;;;;;3.25;1.50;;;29.20;59.30;;;;;;5109795;28;20028;-75
2022/06/11 11:56:56;;;;;;;4.10;1.48;;;29.30;59.60;;;;;;5107158;28;20036;-75
2022/06/11 11:59:44;;;;;;;3.75;1.40;;;29.90;60.40;;;;;;5107892;28;20095;-75
2022/06/11 12:02:14;;;;;;;3.40;1.60;;;30.10;57.70;;;;;;5104637;28;20122;-75
2022/06/11 12:04:51;;;;;;;3.70;1.70;;;30.40;65.50;;;;;;5106150;28;20032;-75
2022/06/11 12:07:21;;;;;;;4.60;1.85;;;30.10;62.60;;;;;;5109808;28;20082;-75
2022/06/11 12:09:53;;;;;;;5.32;1.75;;;30.20;60.70;;;;;;5109921;28;20812;-75
2022/06/11 12:12:30;;;;;;;3.50;1.40;;;30.60;57.40;;;;;;5105220;28;20028;-75
2022/06/11 12:14:57;;;;;;;4.00;1.80;;;30.50;58.60;;;;;;5105740;28;20536;-75
2022/06/11 12:17:40;;;;;;;2.70;1.58;;;30.10;62.60;;;;;;5105391;28;20028;-75
2022/06/11 12:20:28;;;;;;;6.03;1.70;;;29.70;59.40;;;;;;5106990;28;20070;-75
2022/06/11 12:23:01;;;;;;;3.40;1.42;;;28.90;59.60;;;;;;5106349;28;20043;-75
2022/06/11 12:25:53;;;;;;;4.43;1.40;;;27.80;63.10;;;;;;5111696;28;20024;-75
2022/06/11 12:28:24;;;;;;;5.82;1.60;;;27.30;66.70;;;;;;5083915;28;20505;-75
2022/06/11 12:30:50;;;;;;;5.53;1.85;;;27.30;67.00;;;;;;5114687;28;20036;-75
2022/06/11 12:33:17;;;;;;;3.33;1.80;;;27.80;65.70;;;;;;5113796;28;20028;-75
2022/06/11 12:35:52;;;;;;;4.80;1.63;;;28.40;64.30;;;;;;5113034;28;20043;-75
2022/06/11 12:38:34;;;;;;;4.60;1.63;;;28.10;61.20;;;;;;5113584;28;20127;-75
2022/06/11 12:41:31;;;;;;;2.70;1.50;;;28.70;66.60;;;;;;5095232;28;20028;-75
2022/06/11 12:44:43;;;;;;;5.80;1.90;;;29.00;66.10;;;;;;5113409;28;20032;-75
2022/06/11 12:47:14;;;;;;;5.82;1.73;;;28.60;61.60;;;;;;5100099;28;20533;-75
2022/06/11 12:49:49;;;;;;;5.03;1.63;;;28.40;65.30;;;;;;5113366;28;20040;-75
2022/06/11 12:52:40;;;;;;;3.80;1.73;;;28.40;62.70;;;;;;5112294;28;20175;-75
2022/06/11 12:55:36;;;;;;;5.05;3.50;;;28.70;61.70;;;;;;5112762;28;20551;-75
2022/06/11 12:58:19;;;;;;;9.50;5.03;;;29.30;60.20;;;;;;5094525;27;20043;-75
2022/06/11 13:00:53;;;;;;;5.70;2.53;;;29.10;59.20;;;;;;5112571;28;20035;-75
2022/06/11 13:03:22;;;;;;;9.77;3.33;;;29.20;61.70;;;;;;5113048;28;20039;-75
2022/06/11 13:05:56;;;;;;;6.90;3.28;;;29.70;62.40;;;;;;5112492;28;20035;-75
2022/06/11 13:08:43;;;;;;;2.92;1.60;;;28.90;62.40;;;;;;5112602;28;20044;-75
2022/06/11 13:11:36;;;;;;;3.20;1.92;;;28.50;60.80;;;;;;5113470;28;20024;-75
2022/06/11 13:14:32;;;;;;;6.00;1.77;;;28.80;72.00;;;;;;5112538;28;20036;-75
2022/06/11 13:17:22;;;;;;;6.82;4.65;;;29.80;70.70;;;;;;5112745;28;20085;-75
2022/06/11 13:20:15;;;;;;;4.60;1.98;;;30.90;63.40;;;;;;5113310;28;20032;-75
2022/06/11 13:23:01;;;;;;;6.63;2.50;;;32.40;58.80;;;;;;5112238;28;20481;-75
2022/06/11 13:25:55;;;;;;;7.40;2.83;;;32.40;59.50;;;;;;5094145;28;20119;-75
2022/06/11 13:28:54;;;;;;;12.30;7.82;;;32.60;53.70;;;;;;5112346;28;20043;-75
2022/06/11 13:31:25;;;;;;;7.28;4.80;;;32.60;58.30;;;;;;5093825;28;20460;-75
2022/06/11 13:34:08;;;;;;;9.27;6.32;;;32.10;59.90;;;;;;5111287;28;20035;-75
2022/06/11 13:37:00;;;;;;;4.53;2.00;;;31.20;58.80;;;;;;5112165;28;20036;-75
2022/06/11 13:39:35;;;;;;;3.13;2.03;;;29.70;64.60;;;;;;5113413;28;20055;-75
2022/06/11 13:42:15;;;;;;;7.72;3.80;;;29.30;63.20;;;;;;5093423;28;20441;-75
2022/06/11 13:45:22;;;;;;;4.50;2.08;;;30.10;67.20;;;;;;5093559;28;20044;-75
2022/06/11 13:48:31;;;;;;;3.10;1.55;;;31.90;57.20;;;;;;5112233;28;20444;-75
2022/06/11 13:51:22;;;;;;;7.47;5.47;;;31.00;59.70;;;;;;5054961;28;20044;-75
2022/06/11 13:57:30;;;;;;;5.78;4.10;;;33.30;55.10;;;;;;5112053;28;20107;-76
2022/06/11 13:59:56;;;;;;;4.32;1.73;;;35.60;55.80;;;;;;5111680;28;20043;-76
2022/06/11 14:02:45;;;;;;;4.38;1.88;;;36.30;50.70;;;;;;5113047;28;20052;-73
2022/06/11 14:05:20;;;;;;;3.47;1.42;;;37.50;45.80;;;;;;5094340;28;20036;-76
2022/06/11 14:07:47;;;;;;;4.60;1.42;;;37.90;47.10;;;;;;5112348;28;20040;-76
2022/06/11 14:10:21;;;;;;;2.28;1.50;;;37.40;50.00;;;;;;5111869;27;20032;-76
2022/06/11 14:13:32;;;;;;;2.50;1.52;;;36.80;46.20;;;;;;5116049;28;20059;-76
2022/06/11 14:16:30;;;;;;;2.50;1.30;;;37.20;53.20;;;;;;5114966;28;20040;-76
2022/06/11 14:18:56;;;;;;;3.95;1.88;;;37.80;45.80;;;;;;5114638;28;20103;-76
2022/06/11 14:21:39;;;;;;;4.72;1.30;;;38.80;45.60;;;;;;5116224;28;20093;-76
2022/06/11 14:24:11;;;;;;;2.22;1.40;;;38.70;43.60;;;;;;5114816;28;20895;-76
2022/06/11 14:26:45;;;;;;;2.47;1.50;;;38.30;42.70;;;;;;5114808;28;20024;-73
2022/06/11 14:29:26;;;;;;;2.97;1.60;;;38.20;46.40;;;;;;5096726;28;20497;-73
2022/06/11 14:31:55;;;;;;;2.85;1.52;;;38.10;44.20;;;;;;5115442;28;20028;-73
2022/06/11 14:34:28;;;;;;;1.40;1.30;;;38.20;48.00;;;;;;5114376;28;20032;-73
2022/06/11 14:37:21;;;;;;;3.40;1.58;;;37.80;43.80;;;;;;5115180;28;20032;-74
2022/06/11 14:39:47;;;;;;;3.92;1.63;;;39.40;46.80;;;;;;5115168;28;20028;-74
2022/06/11 14:42:19;;;;;;;3.08;1.55;;;40.30;41.20;;;;;;5114684;28;20085;-74
2022/06/11 14:45:24;;;;;;;2.47;1.63;;;41.30;39.60;;;;;;5114457;28;20555;-76
2022/06/11 14:47:57;;;;;;;1.98;1.45;;;41.40;43.60;;;;;;5115824;28;20051;-76
2022/06/11 14:50:49;;;;;;;4.38;2.00;;;41.30;40.00;;;;;;5098944;28;20024;-76
2022/06/11 14:53:41;;;;;;;4.47;2.00;;;41.30;41.50;;;;;;5116043;28;20032;-75
2022/06/11 14:56:32;;;;;;;2.20;1.67;;;41.70;41.10;;;;;;5115277;28;20536;-75
2022/06/11 14:59:31;;;;;;;3.13;1.70;;;41.60;39.50;;;;;;5117035;28;20127;-75
2022/06/11 15:02:36;;;;;;;2.95;1.70;;;41.80;38.10;;;;;;5096309;28;20082;-76
2022/06/11 15:05:42;;;;;;;2.75;1.77;;;42.00;42.20;;;;;;5096623;28;20086;-74
2022/06/11 15:08:42;;;;;;;4.28;1.80;;;41.10;41.60;;;;;;5113739;28;20528;-76
2022/06/11 15:11:34;;;;;;;4.70;1.80;;;41.40;40.00;;;;;;5116541;28;20086;-75
2022/06/11 15:14:27;;;;;;;2.65;1.65;;;42.10;37.30;;;;;;5114446;28;20040;-75
2022/06/11 15:17:12;;;;;;;3.20;1.63;;;42.50;35.20;;;;;;5114646;28;20201;-74
2022/06/11 15:19:46;;;;;;;3.80;2.05;;;42.30;38.50;;;;;;5115024;28;20035;-74
2022/06/11 15:22:30;;;;;;;2.90;1.80;;;42.00;38.10;;;;;;5112703;28;20457;-76
2022/06/11 15:25:08;;;;;;;3.60;1.70;;;41.10;37.80;;;;;;5095574;28;20036;-75
2022/06/11 15:27:36;;;;;;;3.85;1.90;;;41.60;36.90;;;;;;5114035;28;20401;-74
2022/06/11 15:30:19;;;;;;;3.60;1.83;;;41.10;43.60;;;;;;5114758;28;20036;-74
2022/06/11 15:32:47;;;;;;;4.13;1.67;;;42.40;41.50;;;;;;5114291;28;20043;-75
2022/06/11 15:35:33;;;;;;;2.70;1.40;;;42.30;34.90;;;;;;5114003;28;20090;-76
2022/06/11 15:38:01;;;;;;;3.15;1.80;;;41.30;35.80;;;;;;5114283;28;20469;-75
2022/06/11 15:40:34;;;;;;;3.22;1.55;;;40.80;37.30;;;;;;5114328;28;20081;-75
2022/06/11 15:43:05;;;;;;;2.70;1.50;;;41.60;37.80;;;;;;5113723;28;20042;-75
2022/06/11 15:45:36;;;;;;;3.30;1.73;;;40.90;39.60;;;;;;5113730;28;20322;-74
2022/06/11 15:48:13;;;;;;;2.13;1.45;;;40.50;37.30;;;;;;5094762;28;20063;-74
2022/06/11 15:50:39;;;;;;;2.58;1.60;;;40.70;38.40;;;;;;5096457;28;20052;-74
2022/06/11 15:53:23;;;;;;;3.70;1.42;;;41.80;39.20;;;;;;5113770;28;20067;-74
2022/06/11 15:55:49;;;;;;;3.58;1.60;;;42.20;35.40;;;;;;5113636;28;20154;-74
2022/06/11 15:58:17;;;;;;;2.40;1.58;;;42.30;36.70;;;;;;5113389;28;20704;-74
2022/06/11 16:00:53;;;;;;;3.58;1.58;;;42.70;35.50;;;;;;5113525;28;20035;-75
2022/06/11 16:03:44;;;;;;;2.40;1.67;;;42.10;36.00;;;;;;5114680;28;20036;-74
2022/06/11 16:06:21;;;;;;;2.22;1.60;;;42.70;35.30;;;;;;5113809;28;20028;-75
2022/06/11 16:09:01;;;;;;;2.30;1.55;;;43.20;33.80;;;;;;5114213;28;20524;-75
2022/06/11 16:11:33;;;;;;;3.88;1.60;;;42.90;34.20;;;;;;5095794;28;20036;-74
2022/06/11 16:14:19;;;;;;;2.47;1.60;;;42.60;36.50;;;;;;5118302;22;20044;-78
2022/06/11 16:16:55;;;;;;;2.17;1.50;;;42.10;36.20;;;;;;5100650;28;20044;-79
2022/06/11 16:19:24;;;;;;;3.15;1.67;;;42.90;35.50;;;;;;5100734;28;20099;-80
2022/06/11 16:21:57;;;;;;;4.05;1.58;;;42.40;35.40;;;;;;5105807;28;20047;-79
2022/06/11 16:24:26;;;;;;;2.55;1.63;;;41.40;34.60;;;;;;5101095;28;20024;-79
2022/06/11 16:26:55;;;;;;;3.63;1.33;;;39.30;37.50;;;;;;5067386;28;20028;-79
2022/06/11 16:29:24;;;;;;;2.33;1.40;;;37.30;39.40;;;;;;5081623;28;20037;-78
2022/06/11 16:31:52;;;;;;;4.43;1.60;;;35.30;43.70;;;;;;5062098;28;20036;-79
2022/06/11 16:34:19;;;;;;;3.42;1.52;;;34.20;43.30;;;;;;5077642;28;20021;-78
2022/06/11 16:36:47;;;;;;;4.15;1.40;;;33.50;45.20;;;;;;5058456;28;20041;-79
2022/06/11 16:39:30;;;;;;;2.50;1.23;;;32.50;45.80;;;;;;5060679;28;20481;-79
2022/06/11 16:44:45;;;;;;;4.63;2.05;;;31.10;49.80;;;;;;5085898;28;20029;-79
2022/06/11 16:47:14;;;;;;;6.38;1.60;;;30.60;49.50;;;;;;5067244;28;20037;-77
2022/06/11 16:58:03;;;;;;;2.85;1.30;;;29.40;52.90;;;;;;5075471;28;20068;-81
2022/06/11 17:00:32;;;;;;;2.00;1.20;;;29.20;55.20;;;;;;5054652;28;20040;-82
2022/06/11 17:03:06;;;;;;;2.40;1.38;;;29.10;52.90;;;;;;5073076;28;20035;-80
2022/06/11 17:06:01;;;;;;;2.05;1.10;;;28.90;54.30;;;;;;5054285;28;20126;-80
2022/06/11 17:08:27;;;;;;;2.40;1.30;;;28.80;54.50;;;;;;5049496;28;20148;-80
2022/06/11 17:10:56;;;;;;;4.57;1.58;;;28.60;53.00;;;;;;5074845;28;20557;-80
2022/06/11 17:13:30;;;;;;;4.05;1.92;;;28.50;53.40;;;;;;5073126;28;20021;-80
2022/06/11 17:16:17;;;;;;;3.30;1.65;;;28.20;54.90;;;;;;5055146;28;20040;-80
2022/06/11 17:18:57;;;;;;;2.13;1.35;;;28.10;55.30;;;;;;5073619;28;20040;-80
2022/06/11 17:21:34;;;;;;;2.65;1.33;;;27.90;56.40;;;;;;5054991;28;20041;-81
2022/06/11 17:24:05;;;;;;;3.05;1.30;;;27.80;57.40;;;;;;5075366;28;20040;-80
2022/06/11 17:26:50;;;;;;;3.35;1.50;;;27.80;56.20;;;;;;5054946;28;20034;-78
2022/06/11 17:29:17;;;;;;;2.85;1.67;;;27.70;56.10;;;;;;5053728;28;20044;-77
2022/06/11 17:31:45;;;;;;;2.83;1.52;;;27.50;58.50;;;;;;5052974;28;20040;-78
2022/06/11 17:34:12;;;;;;;1.73;1.35;;;27.60;57.80;;;;;;5071616;28;20056;-78
2022/06/11 17:36:40;;;;;;;4.50;1.48;;;27.60;59.00;;;;;;5072046;28;20033;-77
2022/06/11 17:39:19;;;;;;;2.45;1.40;;;27.30;58.00;;;;;;5071340;28;20025;-77
2022/06/11 17:41:47;;;;;;;2.67;1.50;;;27.20;56.10;;;;;;5053120;28;20029;-78
2022/06/11 17:44:19;;;;;;;4.40;1.77;;;27.10;59.20;;;;;;5071004;28;20040;-83
2022/06/11 17:46:45;;;;;;;3.10;1.90;;;26.90;58.00;;;;;;5055617;28;20090;-78